Quincy, IL

4:11 PM CDT on September 04, 2015 (GMT -0500)
Tri-State Storm Chasers - WL#1 | | Change Station
CLOSE
Current Station
Personal Weather Station
Location: Quincy, IL
Elevation: 659 ft
Nearby Weather Stations

Elev 659 ft 39.93 °N, 91.37 °W | Updated 7 minutes ago

Partly Cloudy
Partly Cloudy
96.1 °F
Feels Like 102 °F
N
1.6
Wind Variable Wind from NW

Today
High -- | Low -- °F
--% Chance of Precip.
Yesterday
High -- | Low -- °F
Precip. -- in
6:35 AM 7:32 PM
Waning Gibbous, 56% visible
Pressure 29.95 in
Visibility 10.0 miles
Clouds Few 5500 ft
Heat Index 102 °F
Dew Point 68 °F
Humidity 41%
Rainfall 0.00 in
Snow Depth Not available.
UV 5 out of 12
Pollen 10.30 out of 12
Air Quality Not available.
Flu Activity Not available.
METAR KUIN 042054Z AUTO 21006KT 10SM FEW055 33/19 A2997 RMK AO2 SLP141 T03330194 56012
Pressure 29.95 in
Visibility 10.0 miles
Clouds Few 5500 ft
Heat Index 102 °F
Dew Point 68 °F
Humidity 41%
Rainfall 0.00 in
Snow Depth Not available.
UV 5 out of 12
Pollen 10.30 out of 12
Air Quality Not available.
Flu Activity Not available.
METAR KUIN 042054Z AUTO 21006KT 10SM FEW055 33/19 A2997 RMK AO2 SLP141 T03330194 56012

10-Day Weather Forecast

×

Almanac

Astronomy

Sep. 04, 2015 Rise Set
Actual Time
Civil Twilight
Nautical Twilight
Astronomical Twilight
Moon
Length of Visible Light
Length of Day
Tomorrow will be .
, % of the Moon is Illuminated

Today's Extremes

State Highs State Lows

Community

WunderPhotos

Upload Photos

1,852,296 photos uploaded!

WunderBlogs® & News

Nearby

Air Quality

  Air Quality AQ Index Pollutant
Not available.

Snow Depth

Station Depth Elevation

Earthquake Activity

City Distance Mag. Time & Date
Minimum magnitude displayed is 2.5.

Coastal Water Temperatures

Place Temperature

Stations

Nearby Weather Stations

Station Location Temp. Windchill Dew Point Humidity Wind Precip. Elev Updated Type